Aviation Digital Data Service (ADDS)

Output produced by METARs form (0858 UTC 24 March 2019)
found at http://www.aviationweather.gov/metar/data/
 
Forecast for: WBGB (BINTULU/KALIMANT, MY)
Text: TAF WBGB 240500Z 2406/2506 34006KT 9999 FEW016
Forecast period: 0600 to 1200 UTC 24 March 2019
Forecast type: FROM: standard forecast or significant change
Winds: from the NNW (340 degrees) at 7 MPH (6 knots; 3.1 m/s)
Visibility: 6 or more miles 10+ km)
Ceiling: at least 12,000 feet AGL
Clouds: few clouds at 1600 feet AGL
Weather: no significant weather forecast for this period
Text: BECMG 2412/2414 10005KT
Forecast period: 1200 UTC 24 March 2019 to 0600 UTC 25 March 2019
Forecast type: BECOMING: Conditions expected to become as follows by 1400 UTC 24 March 2019
Winds: from the E (100 degrees) at 6 MPH (5 knots; 2.6 m/s)
Visibility: 6 or more miles 10+ km)
Ceiling: at least 12,000 feet AGL
Clouds: few clouds at 1600 feet AGL
Weather: no significant weather forecast for this period